Willits, CA (95490)

8:54 AM PDT on October 02, 2014 (GMT -0700)
Mendocino College Willits | Change Station
CLOSE
Current Station
Personal Weather Station
Location: Willits, CA
Elevation: 1355 ft
Nearby Weather Stations

Elev 1355 ft 39.41 °N, 123.35 °W | Updated 4 minutes ago

Clear
Clear
45.8 °F
Feels Like 46 °F
N
0.0
Wind Variable Wind from East
Gusts 0.0 mph

Today
High -- | Low -- °F
--% Chance of Precip.
Yesterday
High -- | Low -- °F
Precip. -- in
7:10 AM 6:54 PM
First Quarter, 60% visible
Pressure 30.06 in
Visibility 10.0 miles
Clouds Clear
Windchill 46 °F
Dew Point 42 °F
Humidity 88%
Rainfall 0.00 in
Snow Depth 0 in , 1 in , 0 in
UV 0 out of 12
Pollen 4.10 out of 12
Air Quality Not available.
Flu Activity Not available.
METAR KUKI 021456Z AUTO 00000KT 10SM CLR 08/06 A3007 RMK AO2 SLP177 T00830061 53017

More Conditions Fewer Conditions

Pressure 30.06 in
Visibility 10.0 miles
Clouds Clear
Windchill 46 °F
Dew Point 42 °F
Humidity 88%
Rainfall 0.00 in
Snow Depth 0 in , 1 in , 0 in
UV 0 out of 12
Pollen 4.10 out of 12
Air Quality Not available.
Flu Activity Not available.
METAR KUKI 021456Z AUTO 00000KT 10SM CLR 08/06 A3007 RMK AO2 SLP177 T00830061 53017

More Conditions Fewer Conditions

10-Day Weather Forecast

Almanac

Astronomy

Oct. 02, 2014 Rise Set
Actual Time 7:10 AM PDT 6:54 PM PDT
Civil Twilight 6:43 AM PDT 7:20 PM PDT
Nautical Twilight 6:12 AM PDT 7:51 PM PDT
Astronomical Twilight 5:41 AM PDT 8:23 PM PDT
Moon 3:03 PM PDT 12:34 AM PDT
Length of Visible Light 12h 37m
Length of Day
11h 43m
Tomorrow will be 2m 33s shorter.
First Quarter, 60% of the Moon is Illuminated
Today
First Quarter
Oct 8
Full
Oct 15
Last Quarter
Oct 23
New
Oct 30
First Quarter

Today's Extremes

State Highs State Lows

Community

WunderPhotos

Upload Photos

1,758,276 photos uploaded!

WunderBlogs® & News

Nearby

Snow Depth

Station Depth Elevation
Fallen Leaf 0 in 6300 ft
Burnside Lake 1 in 8139 ft
Summit Meadow 2 in 9122 ft
Blue Lakes 0 in 8000 ft
CSS Lab 4 in 6900 ft

Earthquake Activity

City Distance Mag. Time & Date
Hayfork, California 54 miles 2.5 11:28 PM PDT
2014-09-30
East Foothills, California 158 miles 2.6 3:34 PM PDT
2014-09-30
Minimum magnitude displayed is 2.5.

Coastal Water Temperatures

Place Temperature
Arena Cove, CA 53.1 °F
North Spit, CA 54.0 °F
Point Reyes, CA 59.0 °F
San Francisco, CA 64.0 °F
Richmond, CA 66.9 °F

Nearby Weather Stations